Time;durP1;ratioP1;P1;durP2;ratioP2;P2;SDS_P1;SDS_P2;PMS_P1;PMS_P2;Temp;Humidity;BMP_temperature;BMP_pressure;BME280_temperature;BME280_humidity;BME280_pressure;Samples;Min_cycle;Max_cycle;Signal;HPM_P1;HPM_P2
2023/10/04 00:01:06;;;;;;;0.10;0.10;;;;;;;17.25;57.41;102503.38;5048286;28;20428;-81
2023/10/04 00:03:33;;;;;;;0.10;0.10;;;;;;;17.30;57.06;102498.81;5048522;28;20025;-82
2023/10/04 00:05:59;;;;;;;0.10;0.10;;;;;;;17.11;57.92;102504.56;5042968;28;20064;-83
2023/10/04 00:08:25;;;;;;;0.10;0.10;;;;;;;17.14;57.63;102517.00;5047142;28;20055;-83
2023/10/04 00:10:51;;;;;;;0.10;0.10;;;;;;;17.21;57.34;102515.06;5046217;28;20064;-83
2023/10/04 00:13:18;;;;;;;0.10;0.10;;;;;;;17.33;57.21;102508.56;5050449;28;20029;-83
2023/10/04 00:15:44;;;;;;;0.20;0.20;;;;;;;17.31;57.54;102511.28;5051357;28;20045;-83
2023/10/04 00:18:10;;;;;;;0.08;0.08;;;;;;;17.26;57.48;102507.84;5042228;28;20056;-83
2023/10/04 00:20:36;;;;;;;1.27;0.38;;;;;;;17.18;57.48;102517.81;5052207;28;20496;-83
2023/10/04 00:23:04;;;;;;;1.90;1.45;;;;;;;17.14;57.69;102525.91;5042907;28;20064;-83
2023/10/04 00:25:33;;;;;;;0.10;0.10;;;;;;;17.19;57.54;102520.47;5048179;28;20025;-82
2023/10/04 00:27:59;;;;;;;0.10;0.10;;;;;;;17.18;57.75;102520.50;5042751;28;20092;-83
2023/10/04 00:30:27;;;;;;;0.10;0.10;;;;;;;17.16;57.97;102525.00;5049836;28;20500;-83
2023/10/04 00:32:56;;;;;;;0.25;0.25;;;;;;;17.05;57.88;102520.75;5059747;28;20029;-82
2023/10/04 00:35:23;;;;;;;0.35;0.35;;;;;;;17.08;58.16;102526.03;5057277;28;20088;-83
2023/10/04 00:37:55;;;;;;;0.45;0.45;;;;;;;17.03;58.00;102522.56;5056377;28;20047;-82
2023/10/04 00:40:27;;;;;;;0.30;0.30;;;;;;;17.08;57.94;102525.16;5057461;28;20029;-81
2023/10/04 00:42:55;;;;;;;0.35;0.35;;;;;;;16.95;58.98;102527.22;5057986;28;20029;-83
2023/10/04 00:45:22;;;;;;;0.30;0.30;;;;;;;16.95;58.54;102532.56;5056893;28;20092;-83
2023/10/04 00:47:52;;;;;;;1.30;1.20;;;;;;;16.89;58.46;102529.97;5057455;28;20029;-84
2023/10/04 00:50:26;;;;;;;0.75;0.75;;;;;;;17.03;58.27;102527.91;5057032;28;20446;-83
2023/10/04 00:55:34;;;;;;;0.30;0.30;;;;;;;16.93;58.02;102537.06;5074488;28;20386;-77
2023/10/04 00:58:05;;;;;;;0.10;0.10;;;;;;;16.87;58.15;102529.13;5068285;28;20029;-79
2023/10/04 01:00:32;;;;;;;0.10;0.10;;;;;;;16.85;58.05;102529.16;5059393;28;20036;-78
2023/10/04 01:02:58;;;;;;;0.10;0.10;;;;;;;16.92;58.19;102535.28;5070165;28;20028;-79
2023/10/04 01:05:26;;;;;;;0.10;0.10;;;;;;;16.97;58.08;102531.63;5065941;28;20070;-77
2023/10/04 01:07:54;;;;;;;0.10;0.10;;;;;;;16.90;58.61;102539.78;5064176;28;20024;-78
2023/10/04 01:10:21;;;;;;;0.10;0.10;;;;;;;16.92;58.38;102536.19;5068357;28;20059;-79
2023/10/04 01:12:49;;;;;;;0.10;0.10;;;;;;;16.89;58.72;102538.88;5057659;28;20029;-77
2023/10/04 01:15:32;;;;;;;0.10;0.10;;;;;;;16.87;58.56;102542.50;5065253;28;20400;-78
2023/10/04 01:17:59;;;;;;;;;;;;;;;16.94;58.72;102544.19;5054662;28;20163;-76
2023/10/04 01:20:30;;;;;;;0.10;0.10;;;;;;;16.81;58.87;102547.06;5066598;28;20007;-78
2023/10/04 01:23:05;;;;;;;0.10;0.10;;;;;;;16.79;59.14;102548.88;5066996;28;20039;-78
2023/10/04 01:25:34;;;;;;;0.22;0.22;;;;;;;16.76;59.14;102551.63;5071806;28;20035;-75
2023/10/04 01:28:06;;;;;;;0.73;0.68;;;;;;;16.78;59.16;102551.59;5065768;28;20047;-78
2023/10/04 01:30:33;;;;;;;;;;;;;;;16.89;58.94;102548.72;5060433;28;20025;-78
2023/10/04 01:33:03;;;;;;;0.10;0.10;;;;;;;16.72;59.60;102541.00;5059141;28;19917;-78
2023/10/04 01:35:29;;;;;;;0.10;0.10;;;;;;;16.68;59.63;102541.97;5064270;28;20513;-78
2023/10/04 01:37:55;;;;;;;0.08;0.08;;;;;;;16.66;59.72;102542.00;5061414;28;20029;-78
2023/10/04 01:40:25;;;;;;;0.43;0.43;;;;;;;16.67;59.93;102546.41;5070407;28;20039;-77
2023/10/04 01:42:54;;;;;;;0.10;0.10;;;;;;;16.63;60.12;102540.25;5063844;28;20021;-78
2023/10/04 01:45:21;;;;;;;0.13;0.13;;;;;;;16.63;60.24;102534.88;5056132;28;20025;-76
2023/10/04 01:47:47;;;;;;;0.10;0.10;;;;;;;16.62;60.56;102541.19;5062228;28;20031;-78
2023/10/04 01:50:14;;;;;;;0.10;0.10;;;;;;;16.58;60.82;102547.47;5049589;28;20022;-78
2023/10/04 01:52:40;;;;;;;0.20;0.20;;;;;;;16.57;60.50;102550.19;5051723;28;20092;-77
2023/10/04 01:55:10;;;;;;;0.20;0.20;;;;;;;16.54;60.70;102544.91;5059657;28;20032;-76
2023/10/04 01:57:38;;;;;;;0.10;0.10;;;;;;;16.52;60.93;102544.91;5051930;28;20073;-74
2023/10/04 02:00:07;;;;;;;0.20;0.20;;;;;;;16.53;60.89;102549.34;5051244;28;20033;-76
2023/10/04 02:02:33;;;;;;;0.10;0.10;;;;;;;16.46;61.20;102548.59;5063219;28;20075;-79
2023/10/04 02:05:00;;;;;;;0.65;0.65;;;;;;;16.44;61.23;102547.72;5054937;28;20022;-78
2023/10/04 02:07:27;;;;;;;0.10;0.10;;;;;;;16.33;61.47;102542.56;5043846;28;20036;-78
2023/10/04 02:09:53;;;;;;;0.08;0.08;;;;;;;16.39;61.08;102546.94;5048063;28;20037;-77
2023/10/04 02:12:20;;;;;;;0.10;0.10;;;;;;;16.39;61.16;102536.22;5048708;28;20077;-77
2023/10/04 02:14:48;;;;;;;0.10;0.10;;;;;;;16.33;61.42;102542.56;5052041;28;20021;-77
2023/10/04 02:17:17;;;;;;;0.10;0.10;;;;;;;16.29;61.38;102542.66;5046697;28;20032;-77
2023/10/04 02:19:43;;;;;;;1.55;1.30;;;;;;;16.28;61.26;102539.06;5053496;28;20021;-78
2023/10/04 02:22:10;;;;;;;0.10;0.10;;;;;;;16.24;61.37;102542.72;5048428;28;20486;-78
2023/10/04 02:24:38;;;;;;;0.10;0.10;;;;;;;16.27;61.30;102547.13;5051483;28;20071;-78
2023/10/04 02:27:07;;;;;;;0.10;0.10;;;;;;;16.25;61.52;102546.25;5048133;28;20066;-78
2023/10/04 02:29:34;;;;;;;0.10;0.10;;;;;;;16.24;61.35;102552.53;5049677;28;20047;-78
2023/10/04 02:32:08;;;;;;;0.40;0.40;;;;;;;16.20;61.52;102550.81;5051230;28;20029;-78
2023/10/04 02:34:35;;;;;;;0.10;0.10;;;;;;;16.17;61.62;102557.09;5050830;28;20036;-79
2023/10/04 02:37:10;;;;;;;0.10;0.10;;;;;;;16.13;61.93;102556.25;5055580;28;20033;-77
2023/10/04 02:39:37;;;;;;;0.10;0.10;;;;;;;16.06;62.23;102575.97;5049614;28;20059;-78
2023/10/04 02:42:09;;;;;;;0.10;0.10;;;;;;;16.05;62.04;102573.31;5059452;28;20482;-78
2023/10/04 02:44:36;;;;;;;0.20;0.20;;;;;;;16.05;61.97;102571.56;5049799;28;20033;-79
2023/10/04 02:47:06;;;;;;;0.10;0.10;;;;;;;16.04;61.99;102576.91;5054639;28;20036;-79
2023/10/04 02:49:37;;;;;;;0.10;0.10;;;;;;;15.98;61.86;102568.06;5048950;28;20074;-79
2023/10/04 02:52:06;;;;;;;0.10;0.10;;;;;;;15.96;62.01;102577.03;5050881;28;20088;-78
2023/10/04 02:54:33;;;;;;;0.10;0.10;;;;;;;15.92;62.49;102577.97;5056058;28;20028;-77
2023/10/04 02:57:00;;;;;;;0.10;0.10;;;;;;;15.85;62.46;102575.41;5052354;28;20036;-80
2023/10/04 02:59:27;;;;;;;0.10;0.10;;;;;;;15.85;62.48;102579.88;5058532;28;20029;-80
2023/10/04 03:01:54;;;;;;;0.10;0.10;;;;;;;15.78;62.67;102575.50;5051260;28;20029;-79
2023/10/04 03:04:20;;;;;;;0.10;0.10;;;;;;;15.73;62.33;102578.22;5056654;28;20055;-79
2023/10/04 03:06:48;;;;;;;0.10;0.10;;;;;;;15.66;63.01;102573.84;5049490;28;20025;-77
2023/10/04 03:09:14;;;;;;;0.10;0.10;;;;;;;15.64;62.89;102568.53;5050433;28;20371;-80
2023/10/04 03:11:42;;;;;;;0.10;0.10;;;;;;;15.60;62.58;102565.91;5047115;28;20033;-79
2023/10/04 03:14:11;;;;;;;0.10;0.10;;;;;;;15.51;63.10;102570.50;5046172;28;20063;-79
2023/10/04 03:16:40;;;;;;;0.10;0.10;;;;;;;15.52;63.19;102572.25;5044373;28;20033;-80
2023/10/04 03:19:07;;;;;;;0.10;0.10;;;;;;;15.50;62.95;102574.06;5043209;28;20044;-80
2023/10/04 03:21:33;;;;;;;0.00;0.00;;;;;;;15.56;62.78;102580.22;5057753;28;20107;-79
2023/10/04 03:24:06;;;;;;;0.10;0.10;;;;;;;15.56;63.07;102577.56;5049030;28;20029;-79
2023/10/04 03:26:32;;;;;;;0.15;0.15;;;;;;;15.56;63.17;102577.56;5035868;28;20037;-80
2023/10/04 03:28:58;;;;;;;0.10;0.10;;;;;;;15.56;62.95;102572.22;5050115;28;20104;-77
2023/10/04 03:31:24;;;;;;;0.10;0.10;;;;;;;15.58;62.77;102575.75;5043278;28;20037;-80
2023/10/04 03:33:51;;;;;;;0.10;0.10;;;;;;;15.53;63.20;102571.34;5044858;28;20039;-78
2023/10/04 03:36:18;;;;;;;0.10;0.10;;;;;;;15.52;63.07;102563.34;5050677;28;20040;-77
2023/10/04 03:38:45;;;;;;;0.10;0.10;;;;;;;15.49;63.19;102563.41;5059435;28;20029;-76
2023/10/04 03:41:12;;;;;;;0.20;0.20;;;;;;;15.45;63.30;102562.56;5057635;28;20074;-78
2023/10/04 03:43:40;;;;;;;0.20;0.20;;;;;;;15.44;63.51;102576.81;5050869;28;20025;-78
2023/10/04 03:46:21;;;;;;;0.10;0.10;;;;;;;15.34;64.29;102583.19;5044182;28;20029;-76
2023/10/04 03:48:49;;;;;;;0.10;0.10;;;;;;;15.33;64.16;102576.94;5062519;28;20028;-76
2023/10/04 03:51:20;;;;;;;0.10;0.10;;;;;;;15.33;64.06;102584.94;5056411;28;20026;-77
2023/10/04 03:53:47;;;;;;;0.10;0.10;;;;;;;15.25;64.85;102580.59;5058463;28;20035;-76
2023/10/04 03:56:16;;;;;;;0.10;0.10;;;;;;;15.26;64.07;102583.25;5054197;28;20052;-76
2023/10/04 03:58:43;;;;;;;0.10;0.10;;;;;;;15.19;64.54;102578.91;5056865;28;20028;-77
2023/10/04 04:01:10;;;;;;;0.00;0.00;;;;;;;15.18;64.26;102572.66;5054198;28;20040;-77
2023/10/04 04:03:36;;;;;;;0.10;0.10;;;;;;;15.17;63.86;102570.91;5046594;28;20556;-77
2023/10/04 04:06:02;;;;;;;0.10;0.10;;;;;;;15.13;64.50;102563.84;5039965;28;20110;-77
2023/10/04 04:08:28;;;;;;;0.10;0.10;;;;;;;15.10;64.58;102558.50;5050595;28;20501;-78
2023/10/04 04:10:55;;;;;;;0.10;0.10;;;;;;;15.06;64.98;102559.47;5053304;28;20103;-77
2023/10/04 04:13:23;;;;;;;0.10;0.10;;;;;;;15.04;64.56;102550.56;5051246;28;20053;-78
2023/10/04 04:15:51;;;;;;;0.10;0.10;;;;;;;15.00;64.88;102551.53;5050855;28;20036;-78
2023/10/04 04:18:21;;;;;;;0.10;0.10;;;;;;;14.98;64.80;102553.34;5052542;28;20029;-79
2023/10/04 04:20:48;;;;;;;0.10;0.10;;;;;;;14.97;65.04;102543.56;5051681;28;20510;-77
2023/10/04 04:23:15;;;;;;;0.10;0.10;;;;;;;14.95;64.98;102540.00;5051397;28;20055;-76
2023/10/04 04:25:42;;;;;;;0.10;0.10;;;;;;;14.92;65.01;102534.72;5050874;28;20513;-77
2023/10/04 04:28:12;;;;;;;0.30;0.30;;;;;;;14.87;65.09;102535.63;5040553;28;20501;-78
2023/10/04 04:30:39;;;;;;;0.05;0.05;;;;;;;14.85;65.18;102544.56;5047271;28;20025;-78
2023/10/04 04:33:07;;;;;;;0.10;0.10;;;;;;;14.79;65.68;102556.19;5042378;28;20028;-75
2023/10/04 04:38:16;;;;;;;0.08;0.08;;;;;;;14.73;65.84;102564.28;5131254;27;20390;-79
2023/10/04 04:40:47;;;;;;;0.10;0.10;;;;;;;14.74;65.41;102581.16;5130167;28;20098;-79
2023/10/04 04:46:00;;;;;;;0.10;0.10;;;;;;;14.68;65.83;102584.78;5077179;28;20146;-80
2023/10/04 04:48:29;;;;;;;0.10;0.10;;;;;;;14.66;65.86;102587.44;5058356;28;20057;-80
2023/10/04 04:50:57;;;;;;;0.10;0.10;;;;;;;14.67;65.53;102589.22;5063133;28;20039;-78
2023/10/04 04:53:24;;;;;;;0.10;0.10;;;;;;;14.64;66.20;102586.56;5054013;28;20460;-78
2023/10/04 04:55:51;;;;;;;0.10;0.10;;;;;;;14.59;66.28;102576.81;5059031;28;20080;-78
2023/10/04 04:58:18;;;;;;;0.10;0.10;;;;;;;14.57;66.42;102583.03;5059340;28;20033;-78
2023/10/04 05:00:47;;;;;;;0.10;0.10;;;;;;;14.60;66.21;102586.59;5059922;28;20029;-77
2023/10/04 05:03:13;;;;;;;0.10;0.10;;;;;;;14.57;66.15;102580.38;5064880;28;20051;-77
2023/10/04 05:05:41;;;;;;;0.10;0.10;;;;;;;14.56;65.90;102578.59;5062939;28;20021;-78
2023/10/04 05:08:07;;;;;;;0.10;0.10;;;;;;;14.52;66.27;102579.53;5055593;28;20041;-78
2023/10/04 05:10:38;;;;;;;0.10;0.10;;;;;;;14.50;66.28;102585.78;5064311;28;20442;-77
2023/10/04 05:13:09;;;;;;;0.10;0.10;;;;;;;14.48;66.16;102588.47;5056930;28;20055;-78
2023/10/04 05:15:38;;;;;;;0.10;0.10;;;;;;;14.45;65.94;102598.28;5052353;28;20022;-77
2023/10/04 05:18:05;;;;;;;0.10;0.10;;;;;;;14.42;66.25;102601.84;5062258;28;20020;-78
2023/10/04 05:20:33;;;;;;;0.47;0.47;;;;;;;14.37;66.82;102614.34;5057914;28;20368;-79
2023/10/04 05:23:00;;;;;;;0.10;0.10;;;;;;;14.35;66.56;102624.13;5062141;28;20033;-78
2023/10/04 05:25:27;;;;;;;0.10;0.10;;;;;;;14.32;66.65;102625.03;5063570;28;20025;-78
2023/10/04 05:28:11;;;;;;;0.10;0.10;;;;;;;14.26;67.23;102618.88;5065857;28;20029;-79
2023/10/04 05:30:38;;;;;;;0.55;0.55;;;;;;;14.19;67.25;102623.34;5051957;28;20017;-78
2023/10/04 05:33:06;;;;;;;0.20;0.20;;;;;;;14.17;67.26;102625.16;5050858;28;20034;-79
2023/10/04 05:35:35;;;;;;;0.13;0.13;;;;;;;14.14;67.56;102626.03;5062058;28;20013;-78
2023/10/04 05:38:03;;;;;;;0.10;0.10;;;;;;;14.14;67.63;102623.34;5061912;28;20025;-77
2023/10/04 05:40:31;;;;;;;0.10;0.10;;;;;;;14.12;67.76;102625.16;5063187;28;20025;-76
2023/10/04 05:42:59;;;;;;;0.10;0.10;;;;;;;14.08;68.27;102626.06;5052572;28;20335;-77
2023/10/04 05:45:25;;;;;;;0.10;0.10;;;;;;;14.04;68.85;102629.66;5042669;28;20032;-76
2023/10/04 05:47:52;;;;;;;0.43;0.43;;;;;;;14.03;68.95;102628.78;5038076;28;20068;-78
2023/10/04 05:50:22;;;;;;;0.10;0.10;;;;;;;14.02;68.90;102634.13;5040667;28;20029;-77
2023/10/04 05:52:51;;;;;;;0.20;0.20;;;;;;;13.99;69.42;102631.47;5044517;28;20021;-77
2023/10/04 05:55:18;;;;;;;0.10;0.10;;;;;;;14.01;69.14;102640.34;5044025;28;20402;-78
2023/10/04 05:57:46;;;;;;;0.10;0.10;;;;;;;14.00;69.54;102638.56;5028509;28;20032;-76
2023/10/04 06:00:24;;;;;;;0.10;0.10;;;;;;;14.02;69.58;102636.78;5036181;28;20029;-78
2023/10/04 06:02:53;;;;;;;0.20;0.20;;;;;;;14.07;69.63;102640.31;5036009;28;20033;-79
2023/10/04 06:05:22;;;;;;;0.10;0.10;;;;;;;14.07;70.52;102645.63;5025368;28;20030;-78
2023/10/04 06:07:50;;;;;;;0.17;0.17;;;;;;;14.10;70.99;102648.25;5028496;28;20112;-79
2023/10/04 06:10:16;;;;;;;0.30;0.30;;;;;;;14.15;69.85;102643.78;5035676;28;20025;-79
2023/10/04 06:12:44;;;;;;;0.10;0.10;;;;;;;14.10;70.83;102639.41;5033196;28;20030;-77
2023/10/04 06:15:13;;;;;;;0.85;0.85;;;;;;;14.16;70.76;102642.03;5030028;28;20041;-77
2023/10/04 06:17:42;;;;;;;0.10;0.10;;;;;;;14.24;70.31;102646.41;5030003;28;20026;-79
2023/10/04 06:20:23;;;;;;;0.10;0.10;;;;;;;14.31;70.56;102652.59;5036513;28;20025;-79
2023/10/04 06:22:52;;;;;;;0.55;0.55;;;;;;;14.28;70.99;102643.72;5036386;28;20029;-80
2023/10/04 06:25:22;;;;;;;0.70;0.70;;;;;;;14.34;70.96;102641.00;5032045;28;20077;-78
2023/10/04 06:27:50;;;;;;;0.13;0.13;;;;;;;14.33;71.05;102647.22;5027831;28;20033;-80
2023/10/04 06:30:22;;;;;;;1.67;1.58;;;;;;;14.39;71.58;102652.53;5034883;28;20481;-79
2023/10/04 06:32:51;;;;;;;2.08;0.57;;;;;;;14.46;71.42;102651.59;5031398;28;20088;-78
2023/10/04 06:35:18;;;;;;;0.32;0.32;;;;;;;14.52;71.35;102653.34;5027601;28;20487;-81
2023/10/04 06:37:44;;;;;;;0.20;0.20;;;;;;;14.60;71.46;102655.94;5030224;28;20087;-82
2023/10/04 06:40:15;;;;;;;0.10;0.10;;;;;;;14.70;70.97;102649.66;5027266;28;20030;-78
2023/10/04 06:42:44;;;;;;;0.10;0.10;;;;;;;14.69;70.60;102650.53;5033282;28;20088;-81
2023/10/04 06:45:12;;;;;;;0.10;0.10;;;;;;;14.74;71.77;102647.84;5035255;28;20053;-81
2023/10/04 06:47:41;;;;;;;0.10;0.10;;;;;;;14.80;71.13;102651.34;5031272;28;20033;-81
2023/10/04 06:50:07;;;;;;;0.10;0.10;;;;;;;14.83;71.38;102643.31;5036901;28;20029;-79
2023/10/04 06:52:35;;;;;;;0.20;0.20;;;;;;;14.85;71.66;102652.22;5027685;28;20507;-81
2023/10/04 06:55:02;;;;;;;0.03;0.03;;;;;;;14.93;71.83;102661.91;5028698;28;20032;-77
2023/10/04 06:57:29;;;;;;;0.08;0.08;;;;;;;14.94;71.93;102661.00;5028802;28;20499;-79
2023/10/04 06:59:58;;;;;;;1.13;1.02;;;;;;;14.90;72.61;102669.97;5035446;28;20036;-79
2023/10/04 07:02:24;;;;;;;0.00;0.00;;;;;;;15.09;71.86;102658.22;5032463;28;20049;-79
2023/10/04 07:04:50;;;;;;;0.10;0.10;;;;;;;15.11;72.50;102668.88;5032798;28;20434;-79
2023/10/04 07:07:16;;;;;;;0.30;0.30;;;;;;;15.24;71.57;102666.94;5030797;28;20053;-79
2023/10/04 07:09:42;;;;;;;0.10;0.10;;;;;;;15.26;72.33;102671.38;5035443;28;20765;-79
2023/10/04 07:12:09;;;;;;;0.30;0.30;;;;;;;15.35;71.78;102676.63;5025717;28;20033;-78
2023/10/04 07:14:35;;;;;;;0.47;0.47;;;;;;;15.47;71.11;102672.94;5035322;28;20025;-78
2023/10/04 07:17:02;;;;;;;0.10;0.10;;;;;;;15.51;71.59;102674.69;5034824;28;20030;-77
2023/10/04 07:19:29;;;;;;;0.10;0.10;;;;;;;15.64;71.21;102670.06;5037515;28;20033;-78
2023/10/04 07:21:57;;;;;;;0.17;0.17;;;;;;;15.72;71.20;102669.97;5042568;28;20025;-77
2023/10/04 07:24:23;;;;;;;0.10;0.10;;;;;;;15.68;71.37;102676.25;5041903;28;20029;-79
2023/10/04 07:26:55;;;;;;;0.10;0.10;;;;;;;15.72;71.96;102671.78;5035900;28;20112;-78
2023/10/04 07:29:21;;;;;;;0.10;0.10;;;;;;;15.80;71.87;102665.44;5040832;28;20376;-75
2023/10/04 07:31:48;;;;;;;0.10;0.10;;;;;;;15.90;71.80;102665.31;5028536;28;20033;-75
2023/10/04 07:34:14;;;;;;;0.10;0.10;;;;;;;16.01;71.27;102669.63;5028172;28;20026;-77
2023/10/04 07:36:42;;;;;;;0.10;0.10;;;;;;;16.07;71.51;102665.97;5023116;28;20029;-78
2023/10/04 07:39:08;;;;;;;0.10;0.10;;;;;;;16.00;71.55;102675.88;5032083;28;20026;-75
2023/10/04 07:41:35;;;;;;;0.10;0.10;;;;;;;16.22;70.79;102674.69;5033263;28;20026;-77
2023/10/04 07:44:01;;;;;;;1.05;1.05;;;;;;;16.29;70.96;102684.41;5027350;28;20458;-77
2023/10/04 07:46:27;;;;;;;0.10;0.10;;;;;;;16.28;71.18;102679.97;5026670;28;20065;-77
2023/10/04 07:48:53;;;;;;;0.88;0.82;;;;;;;16.38;71.11;102689.59;5027096;28;20045;-77
2023/10/04 07:51:19;;;;;;;0.10;0.10;;;;;;;16.47;70.78;102681.47;5024484;28;20033;-76
2023/10/04 07:53:46;;;;;;;0.10;0.10;;;;;;;16.50;71.04;102693.91;5030750;28;20499;-75
2023/10/04 07:56:12;;;;;;;0.10;0.10;;;;;;;16.68;70.44;102689.19;5028013;28;20013;-75
2023/10/04 07:58:39;;;;;;;0.10;0.10;;;;;;;16.70;71.03;102695.38;5029283;28;20086;-77
2023/10/04 08:01:05;;;;;;;0.10;0.10;;;;;;;16.83;70.66;102702.28;5029188;28;20029;-77
2023/10/04 08:03:31;;;;;;;0.20;0.20;;;;;;;16.86;70.39;102710.28;5025730;28;20030;-77
2023/10/04 08:05:57;;;;;;;0.10;0.10;;;;;;;16.88;70.20;102704.91;5024922;28;20025;-78
2023/10/04 08:08:23;;;;;;;0.40;0.38;;;;;;;16.93;70.17;102700.38;5020569;28;20046;-78
2023/10/04 08:10:49;;;;;;;0.20;0.20;;;;;;;17.01;70.00;102703.81;5029351;28;20640;-78
2023/10/04 08:13:16;;;;;;;0.10;0.10;;;;;;;17.15;69.86;102706.25;5031491;28;20048;-76
2023/10/04 08:15:42;;;;;;;0.47;0.30;;;;;;;17.21;69.55;102706.13;5035945;28;20025;-76
2023/10/04 08:18:08;;;;;;;0.10;0.10;;;;;;;17.30;69.49;102705.97;5028313;28;20063;-77
2023/10/04 08:20:36;;;;;;;0.75;0.75;;;;;;;17.25;69.42;102712.34;5029285;28;20033;-78
2023/10/04 08:23:02;;;;;;;0.70;0.70;;;;;;;17.30;69.07;102713.13;5022173;28;20041;-77
2023/10/04 08:25:29;;;;;;;0.10;0.10;;;;;;;17.36;68.72;102710.34;5030721;28;20052;-79
2023/10/04 08:27:56;;;;;;;0.20;0.20;;;;;;;17.36;68.60;102704.97;5022911;28;20033;-77
2023/10/04 08:30:22;;;;;;;0.20;0.20;;;;;;;17.44;68.23;102710.19;5031208;28;20083;-77
2023/10/04 08:32:50;;;;;;;0.10;0.10;;;;;;;17.59;67.62;102709.88;5030490;28;20519;-78
2023/10/04 08:35:25;;;;;;;0.65;0.65;;;;;;;17.60;68.06;102702.72;5031596;28;20033;-78
2023/10/04 08:37:54;;;;;;;4.05;0.90;;;;;;;17.57;67.37;102710.81;5033034;28;20032;-79
2023/10/04 08:40:23;;;;;;;0.10;0.10;;;;;;;17.55;67.35;102707.31;5032376;28;20107;-78
2023/10/04 08:42:50;;;;;;;0.30;0.30;;;;;;;17.64;66.98;102715.16;5019528;28;20048;-79
2023/10/04 08:45:18;;;;;;;0.17;0.17;;;;;;;17.61;67.09;102701.81;5029281;28;20025;-78
2023/10/04 08:47:50;;;;;;;0.65;0.63;;;;;;;17.78;66.88;102705.03;5029942;28;20096;-78
2023/10/04 08:50:29;;;;;;;0.10;0.10;;;;;;;17.87;66.44;102705.75;5027294;28;20025;-76
2023/10/04 08:53:03;;;;;;;0.10;0.10;;;;;;;17.96;66.04;102708.28;5025524;28;20045;-79
2023/10/04 08:55:41;;;;;;;0.10;0.10;;;;;;;18.11;66.04;102697.22;5031726;28;20103;-80
2023/10/04 08:58:09;;;;;;;0.60;0.60;;;;;;;18.14;66.03;102700.75;5032187;28;20022;-78
2023/10/04 09:00:38;;;;;;;0.90;0.90;;;;;;;18.24;65.50;102697.84;5028714;28;20044;-77
2023/10/04 09:03:07;;;;;;;0.10;0.10;;;;;;;18.31;65.35;102701.25;5030832;28;20032;-77
2023/10/04 09:05:33;;;;;;;0.10;0.10;;;;;;;18.41;65.20;102696.56;5032040;28;20117;-78
2023/10/04 09:08:04;;;;;;;0.10;0.10;;;;;;;18.42;65.12;102695.66;5027720;28;20040;-79
2023/10/04 09:10:33;;;;;;;0.68;0.55;;;;;;;18.47;64.65;102692.81;5032334;28;20060;-79
2023/10/04 09:13:01;;;;;;;0.10;0.10;;;;;;;18.48;64.79;102690.13;5031044;28;20037;-76
2023/10/04 09:15:28;;;;;;;0.10;0.10;;;;;;;18.47;64.33;102691.03;5033728;28;20021;-76
2023/10/04 09:17:57;;;;;;;5.60;1.25;;;;;;;18.52;64.32;102690.94;5030021;28;20024;-79
2023/10/04 09:20:32;;;;;;;0.70;0.70;;;;;;;18.59;63.87;102692.53;5023844;28;20422;-78
2023/10/04 09:22:59;;;;;;;0.10;0.10;;;;;;;18.57;63.94;102699.75;5029081;28;20026;-79
2023/10/04 09:25:41;;;;;;;0.57;0.57;;;;;;;18.70;63.73;102700.34;5026233;28;20022;-79
2023/10/04 09:28:10;;;;;;;0.30;0.30;;;;;;;18.80;63.60;102701.00;5037156;28;20382;-79
2023/10/04 09:30:37;;;;;;;0.20;0.20;;;;;;;18.85;63.66;102699.94;5029339;28;20060;-79
2023/10/04 09:33:06;;;;;;;0.10;0.10;;;;;;;18.82;62.98;102705.41;5036272;28;20117;-79
2023/10/04 09:35:48;;;;;;;0.10;0.10;;;;;;;18.96;62.98;102696.16;5032482;28;20030;-80
2023/10/04 09:38:17;;;;;;;0.20;0.20;;;;;;;18.82;62.83;102715.28;5029706;28;20033;-80
2023/10/04 09:41:00;;;;;;;0.70;0.70;;;;;;;19.07;62.84;102703.00;5038182;28;20033;-80
2023/10/04 09:43:35;;;;;;;0.35;0.35;;;;;;;19.17;63.30;102705.47;5037707;28;20441;-80
2023/10/04 09:46:07;;;;;;;4.07;0.57;;;;;;;19.17;62.10;102706.31;5034016;28;20021;-80
2023/10/04 09:48:34;;;;;;;0.50;0.50;;;;;;;19.22;62.16;102698.16;5036141;28;20418;-80
2023/10/04 09:51:03;;;;;;;0.45;0.45;;;;;;;19.38;62.57;102699.50;5038164;28;20040;-80
2023/10/04 09:53:29;;;;;;;0.13;0.13;;;;;;;19.27;61.82;102706.97;5036299;28;20077;-79
2023/10/04 09:55:59;;;;;;;0.10;0.10;;;;;;;19.34;61.30;102696.91;5035143;28;20044;-79
2023/10/04 09:58:28;;;;;;;0.10;0.10;;;;;;;19.22;60.95;102709.78;5035950;28;20107;-79
2023/10/04 10:00:58;;;;;;;0.20;0.20;;;;;;;19.34;60.80;102687.06;5036431;28;20041;-80
2023/10/04 10:03:29;;;;;;;2.13;1.33;;;;;;;19.47;60.40;102690.28;5039916;28;20044;-80
2023/10/04 10:05:56;;;;;;;0.45;0.32;;;;;;;19.35;60.15;102688.84;5035831;28;20030;-80
2023/10/04 10:08:26;;;;;;;0.20;0.20;;;;;;;19.49;60.44;102691.13;5031224;28;20450;-80
2023/10/04 10:10:54;;;;;;;0.47;0.47;;;;;;;19.47;59.67;102698.34;5040844;28;20064;-80
2023/10/04 10:13:21;;;;;;;0.10;0.10;;;;;;;19.25;60.04;102695.38;5038613;28;20116;-79
2023/10/04 10:15:48;;;;;;;0.52;0.52;;;;;;;19.24;60.31;102683.75;5037849;28;20025;-79
2023/10/04 10:18:17;;;;;;;0.10;0.10;;;;;;;19.21;60.33;102694.56;5032110;28;20113;-80
2023/10/04 10:20:43;;;;;;;0.00;0.00;;;;;;;19.19;60.38;102687.47;5032342;28;20029;-80
2023/10/04 10:23:13;;;;;;;0.20;0.20;;;;;;;19.26;60.23;102688.22;5031498;28;20041;-80
2023/10/04 10:26:17;;;;;;;1.00;1.00;;;;;;;19.43;59.51;102685.94;5030761;28;20025;-81
2023/10/04 10:28:47;;;;;;;1.88;1.73;;;;;;;19.51;59.37;102688.41;5036154;28;20030;-80
2023/10/04 10:31:22;;;;;;;0.28;0.28;;;;;;;19.42;60.02;102694.91;5040919;28;20030;-81
2023/10/04 10:33:49;;;;;;;0.10;0.10;;;;;;;19.41;59.19;102693.16;5037852;28;20032;-79
2023/10/04 10:36:24;;;;;;;0.10;0.10;;;;;;;19.54;59.03;102689.19;5035735;28;20032;-80
2023/10/04 10:38:51;;;;;;;0.10;0.10;;;;;;;19.43;58.83;102690.41;5039683;28;20119;-80
2023/10/04 10:44:33;;;;;;;0.20;0.20;;;;;;;19.66;58.18;102679.00;5106969;27;20392;-81
2023/10/04 10:49:44;;;;;;;0.10;0.10;;;;;;;19.66;58.52;102670.94;5089216;27;20380;-81
2023/10/04 10:55:17;;;;;;;0.20;0.20;;;;;;;20.01;58.67;102667.25;5063882;27;1866009;-80
2023/10/04 10:57:45;;;;;;;0.10;0.10;;;;;;;20.11;58.18;102666.94;5109866;28;20032;-80
2023/10/04 11:00:18;;;;;;;0.10;0.10;;;;;;;20.16;57.46;102681.13;5102964;28;20029;-80
2023/10/04 11:02:46;;;;;;;0.20;0.20;;;;;;;20.18;57.23;102663.13;5102826;28;20032;-80
2023/10/04 11:05:16;;;;;;;6.03;0.57;;;;;;;20.29;56.91;102671.75;5106892;28;20028;-80
2023/10/04 11:07:44;;;;;;;1.08;0.85;;;;;;;20.22;56.00;102670.16;5119339;28;20515;-80
2023/10/04 11:10:17;;;;;;;0.10;0.10;;;;;;;20.25;56.15;102663.81;5115570;28;20034;-81
2023/10/04 11:12:44;;;;;;;1.25;0.80;;;;;;;20.22;55.99;102680.94;5098353;28;20061;-84
2023/10/04 11:15:11;;;;;;;0.20;0.20;;;;;;;20.10;55.41;102674.16;5109546;28;20161;-82
2023/10/04 11:17:38;;;;;;;0.15;0.15;;;;;;;20.06;55.44;102675.16;5110340;28;20031;-80
2023/10/04 11:22:44;;;;;;;0.20;0.20;;;;;;;19.99;55.64;102663.69;5114052;27;1170829;-79
2023/10/04 11:25:12;;;;;;;6.75;0.93;;;;;;;20.01;55.83;102667.25;5119840;27;20050;-80
2023/10/04 11:27:43;;;;;;;0.10;0.10;;;;;;;19.78;54.88;102664.34;5102392;28;20027;-80
2023/10/04 11:30:13;;;;;;;0.10;0.10;;;;;;;19.99;55.56;102674.47;5118654;28;20027;-79
2023/10/04 11:32:41;;;;;;;0.10;0.10;;;;;;;19.94;55.11;102662.97;5108639;28;20061;-79
2023/10/04 11:35:08;;;;;;;1.20;1.10;;;;;;;20.03;54.60;102662.66;5112070;28;20043;-78
2023/10/04 11:37:43;;;;;;;0.10;0.10;;;;;;;19.98;54.57;102651.19;5120633;28;20356;-79
2023/10/04 11:40:12;;;;;;;0.10;0.10;;;;;;;19.99;54.66;102674.47;5126513;27;20053;-79
2023/10/04 11:42:40;;;;;;;1.15;0.63;;;;;;;20.00;54.68;102662.78;5120322;28;20035;-79
2023/10/04 11:45:23;;;;;;;0.63;0.32;;;;;;;20.16;54.64;102656.91;5116468;27;20030;-80
2023/10/04 11:48:08;;;;;;;5.35;0.55;;;;;;;20.22;54.45;102648.63;5113017;28;20507;-79
2023/10/04 11:50:48;;;;;;;0.98;0.88;;;;;;;20.06;52.60;102648.25;5120637;27;20497;-79
2023/10/04 11:53:30;;;;;;;0.10;0.10;;;;;;;20.19;51.82;102646.94;5125471;28;20076;-79